Time;durP1;ratioP1;P1;durP2;ratioP2;P2;SDS_P1;SDS_P2;PMS_P1;PMS_P2;Temp;Humidity;BMP_temperature;BMP_pressure;BME280_temperature;BME280_humidity;BME280_pressure;Samples;Min_cycle;Max_cycle;Signal;HPM_P1;HPM_P2
2023/03/04 00:00:52;;;;;;;29.33;17.95;;;;;;;8.49;70.01;101437.81;4974242;28;20049;-77
2023/03/04 00:03:19;;;;;;;26.20;17.30;;;;;;;8.49;69.76;101447.56;4955942;28;20415;-78
2023/03/04 00:05:46;;;;;;;26.13;17.60;;;;;;;8.44;70.68;101439.09;4943813;28;20077;-79
2023/03/04 00:08:13;;;;;;;36.53;17.40;;;;;;;8.44;70.09;101455.81;4945573;28;20049;-76
2023/03/04 00:10:53;;;;;;;34.50;18.55;;;;;;;8.40;69.88;101442.88;4934762;28;20465;-81
2023/03/04 00:13:41;;;;;;;30.98;19.00;;;;;;;8.36;70.06;101442.22;4918254;28;20409;-80
2023/03/04 00:16:18;;;;;;;28.42;17.85;;;;;;;7.91;70.17;101384.31;4910654;28;20123;-78
2023/03/04 00:18:47;;;;;;;36.20;18.95;;;;;;;8.00;70.20;101413.75;4919391;28;20073;-78
2023/03/04 00:21:23;;;;;;;26.58;19.10;;;;;;;8.13;70.65;101447.22;4911571;28;20119;-81
2023/03/04 00:23:55;;;;;;;27.77;18.92;;;;;;;8.23;70.10;101454.53;4931645;28;20765;-78
2023/03/04 00:26:27;;;;;;;26.13;19.00;;;;;;;8.15;71.09;101460.34;4912923;28;20415;-80
2023/03/04 00:29:00;;;;;;;28.27;19.58;;;;;;;7.95;70.28;101423.78;4912867;28;20198;-79
2023/03/04 00:31:35;;;;;;;24.23;18.00;;;;;;;8.16;70.83;101461.22;4961469;28;20042;-79
2023/03/04 00:34:07;;;;;;;29.92;19.70;;;;;;;8.06;70.44;101439.81;4932813;28;20054;-78
2023/03/04 00:36:39;;;;;;;29.85;20.33;;;;;;;8.02;70.58;101440.94;4952926;28;20407;-80
2023/03/04 00:39:22;;;;;;;29.23;19.75;;;;;;;8.03;70.70;101463.78;4901330;28;20795;-79
2023/03/04 00:42:10;;;;;;;26.42;19.05;;;;;;;7.65;71.47;101403.66;4925246;28;20310;-80
2023/03/04 00:44:55;;;;;;;28.90;19.52;;;;;;;7.88;70.97;101442.66;4956066;28;20268;-80
2023/03/04 00:47:36;;;;;;;25.27;19.02;;;;;;;8.00;70.76;101469.28;4934357;28;20068;-80
2023/03/04 00:50:17;;;;;;;30.02;19.38;;;;;;;7.89;70.89;101457.59;4926913;28;20057;-80
2023/03/04 00:52:57;;;;;;;29.30;19.35;;;;;;;6.75;70.66;101270.25;4905426;28;20054;-80
2023/03/04 00:55:40;;;;;;;33.20;19.25;;;;;;;7.92;71.48;101469.75;4909446;28;20433;-81
2023/03/04 00:58:12;;;;;;;31.15;20.23;;;;;;;7.89;71.38;101475.25;4920954;28;20363;-78
2023/03/04 01:00:45;;;;;;;28.38;21.13;;;;;;;7.89;71.17;101462.03;4912072;28;20262;-80
2023/03/04 01:03:17;;;;;;;28.30;19.77;;;;;;;7.33;71.48;101384.53;4912696;28;20390;-79
2023/03/04 01:05:57;;;;;;;34.17;19.88;;;;;;;7.70;71.32;101444.69;4912192;28;20597;-80
2023/03/04 01:08:41;;;;;;;28.95;19.63;;;;;;;7.79;71.39;101464.41;4944144;28;20241;-79
2023/03/04 01:11:20;;;;;;;30.77;20.58;;;;;;;7.58;71.40;101424.34;4932591;28;20279;-80
2023/03/04 01:13:59;;;;;;;32.47;20.85;;;;;;;7.66;71.39;101447.63;4919347;28;20201;-81
2023/03/04 01:16:34;;;;;;;34.33;20.77;;;;;;;7.58;72.31;101440.19;4924639;28;20840;-80
2023/03/04 01:19:20;;;;;;;36.63;21.23;;;;;;;7.49;72.36;101431.03;4911075;28;20320;-80
2023/03/04 01:21:48;;;;;;;29.88;21.23;;;;;;;7.64;72.80;101450.34;4956698;28;20403;-78
2023/03/04 01:24:16;;;;;;;26.13;18.70;;;;;;;7.67;72.77;101442.25;4914699;28;20309;-79
2023/03/04 01:26:43;;;;;;;29.17;20.38;;;;;;;7.69;72.58;101447.41;4925799;28;20261;-78
2023/03/04 01:29:15;;;;;;;33.60;22.35;;;;;;;7.56;72.25;101433.31;4917403;28;20519;-79
2023/03/04 01:31:54;;;;;;;36.05;20.35;;;;;;;7.39;72.14;101398.22;4950606;28;20510;-79
2023/03/04 01:34:25;;;;;;;35.15;21.80;;;;;;;7.48;71.78;101405.56;4937477;28;20128;-77
2023/03/04 01:36:56;;;;;;;32.00;19.77;;;;;;;7.60;72.18;101426.88;4937434;28;20399;-78
2023/03/04 01:39:33;;;;;;;32.55;20.27;;;;;;;7.56;71.86;101414.81;4971031;28;20515;-78
2023/03/04 01:42:27;;;;;;;34.40;21.13;;;;;;;7.68;71.97;101440.44;4962435;28;20140;-79
2023/03/04 01:45:03;;;;;;;35.15;21.55;;;;;;;7.68;72.48;101438.66;4940545;28;20760;-79
2023/03/04 01:47:50;;;;;;;33.20;20.93;;;;;;;7.18;72.36;101336.16;4931170;28;20054;-78
2023/03/04 01:50:34;;;;;;;35.45;21.95;;;;;;;7.47;72.01;101385.34;4990837;28;20376;-77
2023/03/04 01:53:16;;;;;;;37.35;22.23;;;;;;;7.53;72.52;101415.00;4992834;28;20581;-78
2023/03/04 01:55:56;;;;;;;32.00;21.40;;;;;;;7.21;72.46;101378.25;4988502;28;20427;-78
2023/03/04 01:58:34;;;;;;;31.65;21.80;;;;;;;7.60;72.63;101442.75;4983277;28;20057;-80
2023/03/04 02:01:10;;;;;;;33.30;21.80;;;;;;;7.54;72.58;101438.66;4984511;28;20053;-79
2023/03/04 02:03:37;;;;;;;34.90;21.77;;;;;;;7.49;72.49;101425.75;5020656;28;20144;-79
2023/03/04 02:06:04;;;;;;;29.48;21.38;;;;;;;7.55;72.81;101429.81;5025667;28;20079;-79
2023/03/04 02:08:34;;;;;;;34.25;21.50;;;;;;;7.49;72.92;101419.63;5020092;28;20048;-80
2023/03/04 02:11:01;;;;;;;36.20;23.23;;;;;;;7.36;72.75;101393.13;5032960;28;20064;-78
2023/03/04 02:13:59;;;;;;;34.58;20.95;;;;;;;7.45;72.44;101397.84;5018112;28;20043;-78
2023/03/04 02:16:27;;;;;;;31.70;21.55;;;;;;;7.38;72.58;101385.97;5011127;28;20130;-79
2023/03/04 02:18:54;;;;;;;31.10;21.67;;;;;;;7.47;72.44;101411.78;4976829;28;20429;-79
2023/03/04 02:21:32;;;;;;;34.45;22.02;;;;;;;7.33;73.07;101371.31;4997330;28;20225;-76
2023/03/04 02:24:19;;;;;;;39.78;21.85;;;;;;;7.54;72.64;101406.97;4991541;28;20247;-79
2023/03/04 02:26:51;;;;;;;41.00;21.63;;;;;;;7.30;73.01;101388.22;4928728;28;20053;-80
2023/03/04 02:29:36;;;;;;;37.85;23.30;;;;;;;7.42;72.73;101400.66;4952542;28;20703;-80
2023/03/04 02:32:14;;;;;;;29.77;21.25;;;;;;;7.22;72.97;101369.38;4938784;28;20549;-80
2023/03/04 02:34:55;;;;;;;33.53;20.08;;;;;;;7.32;72.73;101396.91;4960688;28;20154;-79
2023/03/04 02:37:29;;;;;;;32.25;22.02;;;;;;;7.36;73.04;101414.25;4958120;28;20151;-80
2023/03/04 02:39:58;;;;;;;34.08;20.17;;;;;;;7.36;72.77;101408.13;4978504;28;20741;-78
2023/03/04 02:42:28;;;;;;;34.80;21.92;;;;;;;6.83;72.91;101326.03;4973324;28;20392;-79
2023/03/04 02:45:00;;;;;;;34.60;22.08;;;;;;;7.33;72.99;101414.47;4992259;28;20075;-78
2023/03/04 02:47:30;;;;;;;30.92;20.83;;;;;;;6.49;72.81;101264.78;4950494;28;20068;-78
2023/03/04 02:50:16;;;;;;;40.40;22.40;;;;;;;7.06;72.80;101375.63;4998382;28;20667;-76
2023/03/04 02:52:46;;;;;;;35.33;22.42;;;;;;;7.19;72.88;101402.09;4976930;28;20053;-78
2023/03/04 02:55:27;;;;;;;37.13;22.40;;;;;;;7.13;73.21;101401.63;4957521;28;20148;-79
2023/03/04 02:57:58;;;;;;;36.10;23.13;;;;;;;7.11;73.71;101408.78;4940385;28;20280;-79
2023/03/04 03:00:28;;;;;;;41.78;23.10;;;;;;;6.69;73.26;101344.50;4977964;28;20271;-78
2023/03/04 03:02:59;;;;;;;32.85;22.05;;;;;;;7.06;73.20;101391.47;4958747;28;20284;-78
2023/03/04 03:05:36;;;;;;;31.73;23.52;;;;;;;7.13;73.07;101401.63;4943213;28;20280;-80
2023/03/04 03:08:08;;;;;;;29.45;21.05;;;;;;;7.19;73.30;101406.53;4950759;28;20456;-79
2023/03/04 03:10:38;;;;;;;39.33;23.75;;;;;;;7.21;72.76;101402.03;4942748;28;20063;-79
2023/03/04 03:13:13;;;;;;;42.22;22.92;;;;;;;7.09;72.39;101379.00;4947198;28;20704;-79
2023/03/04 03:15:49;;;;;;;35.28;22.13;;;;;;;7.18;72.60;101405.66;4929681;28;20235;-79
2023/03/04 03:18:27;;;;;;;33.67;21.73;;;;;;;6.98;72.57;101364.66;4959506;28;20225;-78
2023/03/04 03:21:03;;;;;;;32.55;21.92;;;;;;;7.01;73.31;101385.59;4948490;28;20045;-78
2023/03/04 03:23:38;;;;;;;34.58;21.50;;;;;;;6.96;72.96;101374.47;4982500;28;20100;-81
2023/03/04 03:26:21;;;;;;;31.33;22.10;;;;;;;6.94;73.39;101376.38;5020799;28;20045;-78
2023/03/04 03:28:51;;;;;;;31.23;20.45;;;;;;;6.88;73.38;101365.34;4975791;28;20063;-78
2023/03/04 03:31:24;;;;;;;35.90;21.48;;;;;;;6.92;72.48;101378.25;4940438;28;20321;-79
2023/03/04 03:33:51;;;;;;;33.13;20.25;;;;;;;7.08;72.33;101396.63;4974583;28;20291;-80
2023/03/04 03:36:18;;;;;;;36.78;21.33;;;;;;;6.99;72.87;101384.84;4992302;28;20144;-79
2023/03/04 03:38:49;;;;;;;34.58;20.98;;;;;;;6.90;72.40;101381.94;4976486;28;20341;-79
2023/03/04 03:41:23;;;;;;;32.40;20.88;;;;;;;6.79;72.85;101356.19;5008880;28;20238;-80
2023/03/04 03:43:49;;;;;;;37.75;21.92;;;;;;;6.57;73.10;101341.66;4950127;28;20710;-81
2023/03/04 03:46:24;;;;;;;32.53;21.45;;;;;;;6.44;73.47;101327.50;4981392;28;20278;-80
2023/03/04 03:49:00;;;;;;;32.92;22.08;;;;;;;6.40;73.18;101318.06;5005184;28;20173;-78
2023/03/04 03:51:31;;;;;;;28.02;21.23;;;;;;;6.83;73.17;101394.66;5013397;28;20327;-79
2023/03/04 03:54:20;;;;;;;30.65;21.25;;;;;;;6.64;73.32;101352.69;4982809;28;20041;-80
2023/03/04 03:56:47;;;;;;;31.85;21.77;;;;;;;6.74;73.73;101379.38;4983951;28;20045;-80
2023/03/04 03:59:17;;;;;;;34.65;22.38;;;;;;;6.83;73.22;101392.84;5002952;28;20486;-78
2023/03/04 04:01:56;;;;;;;39.03;20.90;;;;;;;6.68;73.60;101375.31;5008579;28;20122;-78
2023/03/04 04:04:29;;;;;;;43.92;22.55;;;;;;;6.80;73.40;101397.47;5005340;28;20076;-78
2023/03/04 04:07:09;;;;;;;35.40;21.10;;;;;;;6.74;73.54;101387.28;5017067;28;20564;-79
2023/03/04 04:09:37;;;;;;;37.55;21.35;;;;;;;6.56;73.42;101358.44;5000503;28;20052;-78
2023/03/04 04:12:05;;;;;;;36.40;21.50;;;;;;;6.77;73.28;101395.00;4976109;28;20064;-79
2023/03/04 04:14:37;;;;;;;36.13;21.58;;;;;;;6.64;73.21;101372.00;5011281;28;20322;-80
2023/03/04 04:17:15;;;;;;;36.33;22.10;;;;;;;6.75;73.52;101386.34;4991311;28;20128;-80
2023/03/04 04:19:46;;;;;;;33.22;22.20;;;;;;;6.20;73.67;101304.28;4995164;28;20080;-80
2023/03/04 04:22:16;;;;;;;37.45;21.05;;;;;;;6.64;73.42;101390.47;5004786;28;20049;-78
2023/03/04 04:24:43;;;;;;;32.00;21.13;;;;;;;6.56;73.19;101371.63;5010407;28;20472;-79
2023/03/04 04:27:19;;;;;;;37.63;22.35;;;;;;;6.68;73.59;101385.03;5029481;28;20045;-77
2023/03/04 04:29:45;;;;;;;33.15;22.08;;;;;;;6.78;73.59;101407.28;5007797;28;21188;-77
2023/03/04 04:32:13;;;;;;;31.58;20.50;;;;;;;6.76;73.32;101394.16;4992107;28;20097;-80
2023/03/04 04:34:41;;;;;;;31.75;21.05;;;;;;;6.70;73.45;101388.41;4992801;28;20184;-79
2023/03/04 04:37:16;;;;;;;40.80;22.25;;;;;;;6.81;73.25;101407.09;5000360;28;20049;-77
2023/03/04 04:39:43;;;;;;;37.45;22.92;;;;;;;6.67;72.83;101388.59;5006281;28;20056;-78
2023/03/04 04:42:11;;;;;;;33.70;23.02;;;;;;;6.42;72.85;101345.22;5001872;28;20245;-80
2023/03/04 04:44:49;;;;;;;32.95;23.42;;;;;;;6.71;73.44;101384.84;4992382;28;20060;-77
2023/03/04 04:47:21;;;;;;;32.95;22.08;;;;;;;6.73;73.34;101404.06;5003773;28;20103;-77
2023/03/04 04:49:53;;;;;;;36.30;21.35;;;;;;;6.51;73.71;101365.78;5000489;28;20213;-79
2023/03/04 04:52:31;;;;;;;36.45;21.67;;;;;;;6.70;73.42;101402.47;4999801;28;20479;-79
2023/03/04 04:55:10;;;;;;;36.60;22.15;;;;;;;6.68;73.67;101390.31;5012072;28;20676;-77
2023/03/04 04:57:38;;;;;;;39.75;23.48;;;;;;;6.66;73.71;101386.91;5016898;28;20182;-78
2023/03/04 05:00:06;;;;;;;33.20;21.67;;;;;;;6.46;73.35;101354.66;5004365;28;20422;-79
2023/03/04 05:02:48;;;;;;;37.85;23.80;;;;;;;6.56;73.27;101376.88;5016102;28;20053;-78
2023/03/04 05:05:14;;;;;;;40.67;24.02;;;;;;;6.66;73.61;101385.09;5016335;28;20449;-78
2023/03/04 05:07:44;;;;;;;46.92;22.77;;;;;;;6.10;73.42;101297.03;4994431;28;20278;-78
2023/03/04 05:10:11;;;;;;;42.53;22.80;;;;;;;6.43;73.54;101354.81;5021914;28;20049;-78
2023/03/04 05:12:50;;;;;;;34.83;22.08;;;;;;;6.64;73.89;101386.97;4998762;28;20044;-79
2023/03/04 05:15:19;;;;;;;33.20;22.45;;;;;;;6.59;73.87;101381.13;5018336;28;20166;-79
2023/03/04 05:17:49;;;;;;;34.10;21.20;;;;;;;6.27;73.60;101335.59;5020217;28;20052;-80
2023/03/04 05:20:22;;;;;;;34.92;21.15;;;;;;;6.61;74.21;101387.19;5009103;28;20049;-78
2023/03/04 05:23:00;;;;;;;33.17;22.08;;;;;;;6.62;73.95;101389.69;5006169;28;20139;-80
2023/03/04 05:25:33;;;;;;;36.00;22.92;;;;;;;6.64;73.72;101392.25;5003391;28;20045;-77
2023/03/04 05:28:00;;;;;;;33.33;22.70;;;;;;;6.64;74.22;101400.19;5006871;28;20049;-78
2023/03/04 05:30:34;;;;;;;35.42;22.48;;;;;;;6.45;73.94;101370.56;5015785;28;20276;-78
2023/03/04 05:33:08;;;;;;;36.47;23.23;;;;;;;6.67;74.12;101399.13;4999855;28;20204;-79
2023/03/04 05:35:35;;;;;;;39.40;23.83;;;;;;;6.51;73.96;101371.03;5006900;28;20323;-79
2023/03/04 05:38:05;;;;;;;34.90;23.67;;;;;;;6.64;73.97;101398.38;4993929;28;20131;-80
2023/03/04 05:40:32;;;;;;;32.80;22.65;;;;;;;6.37;74.23;101352.56;5021614;28;20041;-80
2023/03/04 05:43:01;;;;;;;39.53;22.92;;;;;;;4.90;74.25;101106.41;5005552;28;20084;-77
2023/03/04 05:45:32;;;;;;;37.78;23.17;;;;;;;6.39;74.24;101363.88;5000688;28;20465;-79
2023/03/04 05:48:07;;;;;;;37.75;21.02;;;;;;;6.53;74.52;101389.41;5009310;28;20041;-76
2023/03/04 05:50:34;;;;;;;34.25;23.08;;;;;;;6.61;74.31;101401.22;5008376;28;20053;-77
2023/03/04 05:53:03;;;;;;;39.92;22.52;;;;;;;6.61;74.66;101401.22;5024405;28;20049;-78
2023/03/04 05:55:30;;;;;;;34.70;23.15;;;;;;;6.51;74.74;101394.78;5005414;28;20525;-78
2023/03/04 05:57:57;;;;;;;36.13;23.50;;;;;;;6.59;75.12;101403.09;4994185;28;20398;-78
2023/03/04 06:00:29;;;;;;;34.60;22.27;;;;;;;6.34;75.37;101366.78;4984942;28;20159;-79
2023/03/04 06:02:57;;;;;;;36.58;22.75;;;;;;;6.46;75.70;101391.56;5019001;28;20421;-77
2023/03/04 06:05:24;;;;;;;37.90;22.38;;;;;;;6.60;75.19;101420.63;4998355;28;20057;-77
2023/03/04 06:07:50;;;;;;;36.40;23.73;;;;;;;6.43;75.34;101386.47;5003655;28;20220;-77
2023/03/04 06:10:17;;;;;;;38.05;22.80;;;;;;;6.57;75.68;101414.66;4997034;28;20762;-77
2023/03/04 06:12:44;;;;;;;35.10;22.60;;;;;;;6.40;75.70;101391.91;4993000;28;20156;-78
2023/03/04 06:15:12;;;;;;;40.40;23.60;;;;;;;6.58;75.57;101419.88;5009780;28;20382;-79
2023/03/04 06:17:52;;;;;;;40.88;23.45;;;;;;;6.40;75.30;101391.91;5017656;28;20060;-79
2023/03/04 06:20:21;;;;;;;38.67;21.98;;;;;;;6.43;75.57;101391.72;5016565;28;20040;-78
2023/03/04 06:22:53;;;;;;;36.30;23.65;;;;;;;6.57;75.65;101423.44;5000251;28;20376;-78
2023/03/04 06:25:21;;;;;;;43.80;24.45;;;;;;;6.49;75.67;101414.28;5002361;28;20053;-80
2023/03/04 06:27:53;;;;;;;38.17;23.13;;;;;;;6.53;75.16;101427.22;5021037;28;20053;-80
2023/03/04 06:30:23;;;;;;;38.55;24.55;;;;;;;6.42;75.65;101406.72;5026994;28;20486;-78
2023/03/04 06:32:50;;;;;;;33.00;23.05;;;;;;;6.41;75.70;101405.03;5015049;28;20048;-80
2023/03/04 06:35:20;;;;;;;38.58;23.40;;;;;;;6.59;75.65;101433.91;5005148;28;20059;-79
2023/03/04 06:37:48;;;;;;;44.30;24.30;;;;;;;6.66;75.76;101434.41;5032771;28;20080;-80
2023/03/04 06:40:17;;;;;;;43.47;24.30;;;;;;;6.69;75.14;101442.97;5023535;28;20036;-80
2023/03/04 06:42:49;;;;;;;43.80;25.15;;;;;;;6.70;75.02;101420.06;5005954;28;20048;-79
2023/03/04 06:45:20;;;;;;;41.22;23.60;;;;;;;6.67;74.62;101417.63;5034862;28;20566;-79
2023/03/04 06:47:48;;;;;;;44.35;24.17;;;;;;;6.86;74.53;101447.25;5016349;28;20048;-77
2023/03/04 06:50:16;;;;;;;45.70;23.63;;;;;;;6.64;74.27;101400.19;5032732;28;20049;-79
2023/03/04 06:52:43;;;;;;;37.50;22.80;;;;;;;6.88;73.65;101429.53;5004955;28;20080;-78
2023/03/04 06:55:11;;;;;;;42.85;23.20;;;;;;;6.99;73.94;101442.94;5020098;28;20390;-79
2023/03/04 06:57:40;;;;;;;43.95;25.25;;;;;;;7.07;73.28;101445.09;4986462;28;20758;-78
2023/03/04 07:00:12;;;;;;;41.83;23.25;;;;;;;7.11;73.01;101445.75;5006945;28;20080;-77
2023/03/04 07:02:44;;;;;;;38.08;23.00;;;;;;;7.14;72.88;101440.31;5008958;28;20558;-78
2023/03/04 07:05:20;;;;;;;38.10;23.40;;;;;;;7.23;72.33;101456.44;5033805;28;20147;-78
2023/03/04 07:07:50;;;;;;;42.65;23.48;;;;;;;7.12;72.62;101432.47;5038774;28;20231;-78
2023/03/04 07:10:23;;;;;;;36.83;23.38;;;;;;;7.23;71.62;101447.66;5042065;28;20055;-80
2023/03/04 07:12:55;;;;;;;36.88;23.48;;;;;;;7.25;72.14;101448.41;5028490;28;20389;-78
2023/03/04 07:15:25;;;;;;;43.65;24.90;;;;;;;7.30;71.74;101454.25;5017792;28;20040;-79
2023/03/04 07:17:51;;;;;;;34.72;23.73;;;;;;;6.98;71.73;101393.69;5027677;28;20072;-79
2023/03/04 07:20:20;;;;;;;36.95;22.92;;;;;;;7.44;71.00;101469.25;5024265;28;20079;-77
2023/03/04 07:22:57;;;;;;;39.55;22.92;;;;;;;7.41;70.99;101465.00;5034714;28;20059;-79
2023/03/04 07:25:32;;;;;;;41.38;24.27;;;;;;;7.39;71.29;101461.63;5026058;28;20275;-79
2023/03/04 07:27:59;;;;;;;35.25;23.50;;;;;;;7.42;71.81;101471.13;5040767;28;20252;-77
2023/03/04 07:30:26;;;;;;;41.38;26.20;;;;;;;7.47;71.14;101466.41;5039511;28;20097;-78
2023/03/04 07:32:55;;;;;;;39.05;24.63;;;;;;;7.00;70.79;101381.25;5026439;28;20044;-77
2023/03/04 07:35:38;;;;;;;40.42;24.10;;;;;;;7.07;70.71;101394.94;4997508;28;20184;-79
2023/03/04 07:38:11;;;;;;;42.63;24.60;;;;;;;7.38;71.14;101462.56;5021607;28;20052;-79
2023/03/04 07:40:40;;;;;;;49.67;27.65;;;;;;;7.44;70.62;101456.91;5017475;28;20427;-78
2023/03/04 07:43:07;;;;;;;43.10;25.65;;;;;;;7.42;70.72;101452.66;5014944;28;20048;-80
2023/03/04 07:45:36;;;;;;;34.30;24.45;;;;;;;7.13;70.61;101412.19;5021576;28;20049;-78
2023/03/04 07:48:10;;;;;;;44.00;26.13;;;;;;;7.56;70.72;101476.41;5028067;28;20048;-80
2023/03/04 07:50:45;;;;;;;45.67;25.95;;;;;;;7.32;71.21;101444.44;5026175;28;20060;-79
2023/03/04 07:53:17;;;;;;;47.95;27.90;;;;;;;7.30;71.13;101435.75;5014872;28;20294;-78
2023/03/04 07:55:49;;;;;;;41.15;25.38;;;;;;;7.68;70.50;101483.59;4963264;28;20127;-77
2023/03/04 07:58:25;;;;;;;43.00;26.80;;;;;;;7.70;69.98;101470.28;4965343;28;20536;-78
2023/03/04 08:00:58;;;;;;;42.75;26.98;;;;;;;7.73;70.21;101479.81;5001501;28;20053;-76
2023/03/04 08:03:28;;;;;;;37.17;25.80;;;;;;;7.53;70.53;101434.34;4990959;28;20065;-77
2023/03/04 08:05:58;;;;;;;42.88;27.70;;;;;;;7.60;70.18;101437.47;4971723;28;20125;-78
2023/03/04 08:08:29;;;;;;;39.17;28.25;;;;;;;7.80;70.34;101452.03;4973228;28;20376;-78
2023/03/04 08:11:05;;;;;;;43.97;26.88;;;;;;;7.91;70.17;101468.91;4959213;28;20057;-79
2023/03/04 08:13:33;;;;;;;44.45;28.75;;;;;;;7.73;70.14;101435.72;4974339;28;20056;-75
2023/03/04 08:16:00;;;;;;;42.60;27.30;;;;;;;8.04;69.75;101474.25;4968684;28;20104;-76
2023/03/04 08:18:38;;;;;;;48.25;26.92;;;;;;;7.96;69.02;101441.31;4972082;28;20287;-79
2023/03/04 08:21:11;;;;;;;42.08;26.17;;;;;;;8.02;69.03;101444.44;4937729;28;20053;-78
2023/03/04 08:23:42;;;;;;;47.45;26.25;;;;;;;8.10;68.72;101457.97;4970084;28;20388;-78
2023/03/04 08:26:19;;;;;;;42.60;26.23;;;;;;;7.74;68.83;101387.19;4952201;28;20060;-77
2023/03/04 08:28:49;;;;;;;45.47;25.60;;;;;;;8.01;68.88;101420.72;4955289;28;20399;-79
2023/03/04 08:31:20;;;;;;;46.78;26.63;;;;;;;7.97;68.90;101413.94;4970899;28;20881;-78
2023/03/04 08:33:55;;;;;;;44.78;26.70;;;;;;;8.24;68.62;101448.31;4953558;28;20272;-78
2023/03/04 08:36:25;;;;;;;38.38;24.95;;;;;;;8.16;69.22;101424.19;4951911;28;20048;-79
2023/03/04 08:38:54;;;;;;;47.67;27.83;;;;;;;8.52;68.25;101463.25;4929691;28;20516;-78
2023/03/04 08:41:21;;;;;;;41.15;26.23;;;;;;;8.53;68.11;101462.31;4948663;28;20076;-78
2023/03/04 08:43:57;;;;;;;44.60;28.83;;;;;;;8.53;68.84;101455.19;4991334;28;20378;-78
2023/03/04 08:46:27;;;;;;;43.95;25.90;;;;;;;8.59;69.26;101453.09;4981926;28;20041;-79
2023/03/04 08:48:58;;;;;;;41.53;25.63;;;;;;;8.72;68.05;101454.81;4962844;28;20558;-78
2023/03/04 08:51:30;;;;;;;46.20;27.95;;;;;;;8.56;67.85;101430.31;5001310;28;20049;-77
2023/03/04 08:53:57;;;;;;;42.85;26.70;;;;;;;8.82;67.88;101467.44;4975063;28;20274;-76
2023/03/04 08:56:24;;;;;;;42.95;27.58;;;;;;;8.66;68.36;101443.78;4953350;28;20744;-79
2023/03/04 08:58:50;;;;;;;43.95;29.20;;;;;;;8.87;68.19;101473.28;4977737;28;20499;-80
2023/03/04 09:01:18;;;;;;;47.20;28.67;;;;;;;8.87;68.61;101473.28;4936397;28;20438;-79
2023/03/04 09:03:53;;;;;;;53.25;29.48;;;;;;;8.89;68.40;101450.19;4994035;28;20059;-79
2023/03/04 09:06:20;;;;;;;50.55;29.10;;;;;;;8.55;68.73;101396.88;4985276;28;20060;-77
2023/03/04 09:08:47;;;;;;;43.75;27.58;;;;;;;8.90;68.97;101439.47;5015145;28;20348;-78
2023/03/04 09:11:14;;;;;;;46.45;28.92;;;;;;;9.23;68.23;101463.75;4997313;28;20345;-79
2023/03/04 09:13:44;;;;;;;52.28;30.13;;;;;;;9.41;67.37;101454.50;4998493;28;20479;-75
2023/03/04 09:16:13;;;;;;;49.33;27.95;;;;;;;9.32;68.35;101428.66;4981668;28;20346;-78
2023/03/04 09:18:41;;;;;;;44.35;27.83;;;;;;;9.49;67.97;101438.94;5031401;28;20060;-77
2023/03/04 09:21:10;;;;;;;42.95;29.20;;;;;;;9.45;67.57;101402.16;5003159;28;20107;-77
2023/03/04 09:23:37;;;;;;;46.83;26.83;;;;;;;9.73;67.31;101414.25;5001033;28;20386;-76
2023/03/04 09:26:22;;;;;;;44.03;26.88;;;;;;;9.99;66.72;101447.66;5011411;28;20167;-77
2023/03/04 09:28:53;;;;;;;51.17;26.98;;;;;;;9.80;66.05;101399.59;5024554;28;20056;-78
2023/03/04 09:31:20;;;;;;;43.05;27.08;;;;;;;10.04;65.60;101408.38;5023175;28;20057;-78
2023/03/04 09:33:52;;;;;;;45.03;27.08;;;;;;;10.24;66.09;101445.88;5002277;28;20344;-79
2023/03/04 09:36:19;;;;;;;;;;;;;;;10.31;65.67;101436.53;5006145;28;20736;-79
2023/03/04 09:38:45;;;;;;;36.25;22.42;;;;;;;10.11;66.00;101386.72;5020962;28;20014;-77
2023/03/04 09:41:19;;;;;;;38.13;23.15;;;;;;;10.33;65.42;101401.91;5010191;28;20053;-78
2023/03/04 09:43:49;;;;;;;37.28;23.35;;;;;;;10.55;65.98;101422.38;5007727;28;20055;-78
2023/03/04 09:46:45;;;;;;;36.83;24.45;;;;;;;10.83;64.42;101429.09;5011376;28;20522;-78
2023/03/04 09:49:12;;;;;;;37.15;22.40;;;;;;;10.91;64.27;101435.50;5022191;28;20143;-78
2023/03/04 09:51:56;;;;;;;44.17;24.98;;;;;;;11.07;64.26;101431.66;5012465;28;20078;-80
2023/03/04 09:54:35;;;;;;;40.67;24.05;;;;;;;10.77;64.02;101353.38;5019627;28;20447;-77
2023/03/04 09:57:28;;;;;;;37.13;23.05;;;;;;;11.33;62.32;101430.47;4986807;28;20138;-79
2023/03/04 10:00:11;;;;;;;33.70;20.67;;;;;;;11.42;62.38;101417.41;5011605;28;20084;-80
2023/03/04 10:03:03;;;;;;;32.15;20.17;;;;;;;11.51;62.00;101422.84;4968572;28;20966;-77
2023/03/04 10:05:59;;;;;;;35.42;20.45;;;;;;;11.47;61.93;101383.31;5027957;28;20049;-79
2023/03/04 10:08:44;;;;;;;30.52;18.92;;;;;;;11.85;60.39;101419.28;5025490;28;20056;-78
2023/03/04 10:11:45;;;;;;;35.78;22.05;;;;;;;11.92;60.02;101417.84;5017311;28;20590;-80
2023/03/04 10:14:32;;;;;;;37.33;21.27;;;;;;;11.57;60.98;101365.66;5004396;28;20097;-79
2023/03/04 10:17:05;;;;;;;26.13;17.33;;;;;;;11.85;60.61;101387.34;4999342;28;20055;-78
2023/03/04 10:19:50;;;;;;;29.42;17.95;;;;;;;11.73;59.66;101346.63;5015238;28;20040;-79
2023/03/04 10:22:25;;;;;;;14.93;10.75;;;;;;;12.19;56.69;101402.25;4997028;28;20227;-79
2023/03/04 10:24:57;;;;;;;24.95;14.75;;;;;;;11.92;57.50;101341.53;5003550;28;20080;-79
2023/03/04 10:27:25;;;;;;;23.13;15.98;;;;;;;12.39;57.49;101405.91;5010965;28;20405;-78
2023/03/04 10:29:52;;;;;;;32.40;16.17;;;;;;;12.47;56.83;101405.25;5004501;28;20392;-80
2023/03/04 10:32:20;;;;;;;28.63;17.42;;;;;;;12.48;57.06;101385.66;5018116;28;20201;-80
2023/03/04 10:34:47;;;;;;;38.25;18.83;;;;;;;12.62;56.99;101381.81;5015169;28;20045;-79
2023/03/04 10:37:16;;;;;;;30.00;18.65;;;;;;;12.88;56.84;101392.91;5026145;28;20047;-79
2023/03/04 10:39:49;;;;;;;30.77;18.55;;;;;;;12.79;57.10;101367.91;5026367;28;20055;-80
2023/03/04 10:42:15;;;;;;;34.38;18.98;;;;;;;13.11;56.79;101387.41;5024478;28;20579;-79
2023/03/04 10:44:50;;;;;;;29.42;17.98;;;;;;;13.18;56.42;101393.88;5031419;28;20045;-78
2023/03/04 10:47:21;;;;;;;32.10;19.25;;;;;;;13.26;55.21;101391.41;5011750;28;20044;-79
2023/03/04 10:49:54;;;;;;;30.93;20.53;;;;;;;13.23;55.42;101378.34;5024157;28;20048;-80
2023/03/04 10:52:30;;;;;;;26.67;16.70;;;;;;;13.42;55.83;101374.91;5004197;28;20117;-77
2023/03/04 10:55:02;;;;;;;26.52;17.67;;;;;;;13.25;54.97;101333.69;5016542;28;20049;-80
2023/03/04 10:57:40;;;;;;;33.92;17.90;;;;;;;13.46;55.18;101345.16;5005594;28;20049;-79
2023/03/04 11:00:34;;;;;;;31.95;19.10;;;;;;;12.99;53.63;101238.25;5006942;28;20144;-77
2023/03/04 11:03:27;;;;;;;31.38;19.70;;;;;;;13.94;53.72;101370.25;5021508;28;20463;-78
2023/03/04 11:06:24;;;;;;;31.77;19.25;;;;;;;14.00;53.24;101364.31;5018824;28;20059;-77
2023/03/04 11:08:57;;;;;;;31.88;19.95;;;;;;;14.06;52.50;101349.59;5032146;28;20494;-79
2023/03/04 11:11:41;;;;;;;26.10;18.98;;;;;;;14.21;51.07;101356.19;5019075;28;20398;-79
2023/03/04 11:14:44;;;;;;;28.80;16.80;;;;;;;14.16;52.13;101342.41;5004510;28;20045;-77
2023/03/04 11:17:26;;;;;;;31.38;19.65;;;;;;;14.15;51.56;101340.75;5011255;28;20486;-78
2023/03/04 11:20:01;;;;;;;37.80;19.90;;;;;;;14.33;51.01;101339.00;5027085;28;20517;-78
2023/03/04 11:22:34;;;;;;;28.90;20.27;;;;;;;14.38;50.31;101340.41;5026514;28;20306;-76
2023/03/04 11:25:09;;;;;;;34.65;21.98;;;;;;;14.46;50.71;101340.53;5038171;28;20217;-79
2023/03/04 11:27:47;;;;;;;33.70;21.20;;;;;;;14.35;51.76;101330.88;5016511;28;20049;-77
2023/03/04 11:30:29;;;;;;;27.63;20.65;;;;;;;14.53;51.22;101331.81;5042061;28;20051;-78
2023/03/04 11:33:10;;;;;;;34.17;19.33;;;;;;;14.52;51.12;101315.94;5031801;28;20052;-77
2023/03/04 11:35:57;;;;;;;30.05;19.05;;;;;;;14.50;51.14;101307.22;5027847;28;20185;-80
2023/03/04 11:38:38;;;;;;;30.42;18.90;;;;;;;14.51;49.56;101324.91;5034359;28;20402;-77
2023/03/04 11:41:38;;;;;;;34.50;20.73;;;;;;;14.51;47.75;101316.91;5026921;28;20049;-80
2023/03/04 11:44:10;;;;;;;23.25;17.65;;;;;;;14.26;49.00;101318.38;5013080;28;20052;-76
2023/03/04 11:46:42;;;;;;;26.15;17.50;;;;;;;14.11;48.43;101320.63;5018453;28;20568;-78